KBPG/BPG METAR and TAF weather

Enter ICAO airport designator
Station Type Date Time Source
KBPG METAR 2018/01/16 08:55 UTC NOAA

KBPG 160855Z AUTO 02014KT 10SM OVC050 M04/M19 A3065 RMK AO2 T10401190


Station Type Date Time Source
KBPG Decoded METAR 2018/01/16 08:55 UTC NOAA

Big Spring, Big Spring McMahon-Wrinkle Airport, TX, United States (KBPG) 32-12N 101-31W
Jan 16, 2018 - 03:55 AM EST / 2018.01.16 0855 UTC
Wind: from the NNE (020 degrees) at 16 MPH (14 KT):0
Visibility: 10 mile(s):0
Sky conditions: overcast
Temperature: 24.8 F (-4.0 C)
Windchill: 12 F (-11 C):1
Dew Point: -2.2 F (-19.0 C)
Relative Humidity: 30%
Pressure (altimeter): 30.65 in. Hg (1037 hPa)
ob: KBPG 160855Z AUTO 02014KT 10SM OVC050 M04/M19 A3065 RMK AO2 T10401190
cycle: 9

Station Type Date Time Source
KBPG TAF UTC NOAA

Error!


Example: see airport list